sensor_id;sensor_type;location;lat;lon;timestamp;P1;durP1;ratioP1;P2;durP2;ratioP2
3307;SDS011;1666;48.898;9.182;2023-04-24T00:00:27;1.73;;;1.10;;
3307;SDS011;1666;48.898;9.182;2023-04-24T00:02:58;1.30;;;1.05;;
3307;SDS011;1666;48.898;9.182;2023-04-24T00:05:28;1.88;;;0.60;;
3307;SDS011;1666;48.898;9.182;2023-04-24T00:08:01;1.75;;;0.88;;
3307;SDS011;1666;48.898;9.182;2023-04-24T00:10:31;3.08;;;0.63;;
3307;SDS011;1666;48.898;9.182;2023-04-24T00:13:01;1.45;;;0.70;;
3307;SDS011;1666;48.898;9.182;2023-04-24T00:15:31;1.27;;;0.60;;
3307;SDS011;1666;48.898;9.182;2023-04-24T00:18:01;1.23;;;0.73;;
3307;SDS011;1666;48.898;9.182;2023-04-24T00:20:31;2.25;;;0.77;;
3307;SDS011;1666;48.898;9.182;2023-04-24T00:23:04;2.63;;;0.60;;
3307;SDS011;1666;48.898;9.182;2023-04-24T00:25:34;1.90;;;0.77;;
3307;SDS011;1666;48.898;9.182;2023-04-24T00:28:04;1.98;;;0.63;;
3307;SDS011;1666;48.898;9.182;2023-04-24T00:30:34;1.50;;;0.60;;
3307;SDS011;1666;48.898;9.182;2023-04-24T00:33:04;1.90;;;0.60;;
3307;SDS011;1666;48.898;9.182;2023-04-24T00:35:34;1.45;;;1.10;;
3307;SDS011;1666;48.898;9.182;2023-04-24T00:38:06;1.33;;;0.65;;
3307;SDS011;1666;48.898;9.182;2023-04-24T00:40:36;0.88;;;0.68;;
3307;SDS011;1666;48.898;9.182;2023-04-24T00:43:06;2.55;;;0.75;;
3307;SDS011;1666;48.898;9.182;2023-04-24T00:45:36;3.20;;;0.60;;
3307;SDS011;1666;48.898;9.182;2023-04-24T00:48:06;1.60;;;0.70;;
3307;SDS011;1666;48.898;9.182;2023-04-24T00:50:36;0.63;;;0.60;;
3307;SDS011;1666;48.898;9.182;2023-04-24T00:53:09;1.52;;;0.60;;
3307;SDS011;1666;48.898;9.182;2023-04-24T00:55:39;2.22;;;0.73;;
3307;SDS011;1666;48.898;9.182;2023-04-24T00:58:09;1.38;;;0.70;;
3307;SDS011;1666;48.898;9.182;2023-04-24T01:00:39;2.20;;;0.70;;
3307;SDS011;1666;48.898;9.182;2023-04-24T01:03:09;1.33;;;0.60;;
3307;SDS011;1666;48.898;9.182;2023-04-24T01:05:40;0.55;;;0.47;;
3307;SDS011;1666;48.898;9.182;2023-04-24T01:08:13;1.73;;;0.70;;
3307;SDS011;1666;48.898;9.182;2023-04-24T01:10:44;1.55;;;0.40;;
3307;SDS011;1666;48.898;9.182;2023-04-24T01:13:14;2.25;;;0.63;;
3307;SDS011;1666;48.898;9.182;2023-04-24T01:15:44;1.10;;;0.60;;
3307;SDS011;1666;48.898;9.182;2023-04-24T01:18:15;1.00;;;0.60;;
3307;SDS011;1666;48.898;9.182;2023-04-24T01:20:44;2.80;;;0.80;;
3307;SDS011;1666;48.898;9.182;2023-04-24T01:23:18;1.35;;;0.60;;
3307;SDS011;1666;48.898;9.182;2023-04-24T01:25:48;1.15;;;0.50;;
3307;SDS011;1666;48.898;9.182;2023-04-24T01:28:19;2.40;;;0.60;;
3307;SDS011;1666;48.898;9.182;2023-04-24T01:30:49;2.13;;;0.60;;
3307;SDS011;1666;48.898;9.182;2023-04-24T01:33:20;1.60;;;0.50;;
3307;SDS011;1666;48.898;9.182;2023-04-24T01:35:50;2.17;;;0.90;;
3307;SDS011;1666;48.898;9.182;2023-04-24T01:38:23;1.00;;;0.50;;
3307;SDS011;1666;48.898;9.182;2023-04-24T01:40:53;1.90;;;0.50;;
3307;SDS011;1666;48.898;9.182;2023-04-24T01:43:23;1.95;;;0.88;;
3307;SDS011;1666;48.898;9.182;2023-04-24T01:45:53;1.63;;;0.55;;
3307;SDS011;1666;48.898;9.182;2023-04-24T01:48:23;1.70;;;0.60;;
3307;SDS011;1666;48.898;9.182;2023-04-24T01:50:53;2.45;;;0.70;;
3307;SDS011;1666;48.898;9.182;2023-04-24T01:53:26;2.58;;;0.60;;
3307;SDS011;1666;48.898;9.182;2023-04-24T01:55:56;2.72;;;0.60;;
3307;SDS011;1666;48.898;9.182;2023-04-24T01:58:26;1.02;;;0.60;;
3307;SDS011;1666;48.898;9.182;2023-04-24T02:00:56;1.23;;;0.70;;
3307;SDS011;1666;48.898;9.182;2023-04-24T02:03:26;0.95;;;0.60;;
3307;SDS011;1666;48.898;9.182;2023-04-24T02:05:57;1.90;;;0.77;;
3307;SDS011;1666;48.898;9.182;2023-04-24T02:08:29;2.05;;;0.75;;
3307;SDS011;1666;48.898;9.182;2023-04-24T02:10:59;3.40;;;0.70;;
3307;SDS011;1666;48.898;9.182;2023-04-24T02:13:30;2.65;;;0.60;;
3307;SDS011;1666;48.898;9.182;2023-04-24T02:16:00;1.48;;;0.60;;
3307;SDS011;1666;48.898;9.182;2023-04-24T02:18:30;1.40;;;0.68;;
3307;SDS011;1666;48.898;9.182;2023-04-24T02:21:00;2.40;;;1.00;;
3307;SDS011;1666;48.898;9.182;2023-04-24T02:23:32;2.20;;;0.80;;
3307;SDS011;1666;48.898;9.182;2023-04-24T02:26:02;2.10;;;0.80;;
3307;SDS011;1666;48.898;9.182;2023-04-24T02:28:32;0.80;;;0.55;;
3307;SDS011;1666;48.898;9.182;2023-04-24T02:31:02;1.13;;;0.70;;
3307;SDS011;1666;48.898;9.182;2023-04-24T02:33:32;1.27;;;0.70;;
3307;SDS011;1666;48.898;9.182;2023-04-24T02:36:02;1.98;;;0.80;;
3307;SDS011;1666;48.898;9.182;2023-04-24T02:38:35;2.72;;;0.77;;
3307;SDS011;1666;48.898;9.182;2023-04-24T02:41:05;3.38;;;1.30;;
3307;SDS011;1666;48.898;9.182;2023-04-24T02:43:35;3.30;;;1.08;;
3307;SDS011;1666;48.898;9.182;2023-04-24T02:46:05;1.83;;;0.90;;
3307;SDS011;1666;48.898;9.182;2023-04-24T02:48:35;1.33;;;0.70;;
3307;SDS011;1666;48.898;9.182;2023-04-24T02:51:04;1.05;;;0.70;;
3307;SDS011;1666;48.898;9.182;2023-04-24T02:53:38;0.80;;;0.60;;
3307;SDS011;1666;48.898;9.182;2023-04-24T02:56:08;2.88;;;1.10;;
3307;SDS011;1666;48.898;9.182;2023-04-24T02:58:39;2.03;;;0.95;;
3307;SDS011;1666;48.898;9.182;2023-04-24T03:01:09;2.10;;;0.80;;
3307;SDS011;1666;48.898;9.182;2023-04-24T03:03:39;1.77;;;0.70;;
3307;SDS011;1666;48.898;9.182;2023-04-24T03:06:09;1.50;;;0.60;;
3307;SDS011;1666;48.898;9.182;2023-04-24T03:08:42;2.17;;;0.82;;
3307;SDS011;1666;48.898;9.182;2023-04-24T03:11:12;2.90;;;0.80;;
3307;SDS011;1666;48.898;9.182;2023-04-24T03:13:41;2.55;;;0.85;;
3307;SDS011;1666;48.898;9.182;2023-04-24T03:16:11;1.02;;;0.80;;
3307;SDS011;1666;48.898;9.182;2023-04-24T03:18:44;3.85;;;0.85;;
3307;SDS011;1666;48.898;9.182;2023-04-24T03:21:14;1.08;;;0.80;;
3307;SDS011;1666;48.898;9.182;2023-04-24T03:23:46;1.90;;;0.73;;
3307;SDS011;1666;48.898;9.182;2023-04-24T03:26:16;2.15;;;1.00;;
3307;SDS011;1666;48.898;9.182;2023-04-24T03:28:46;1.38;;;0.70;;
3307;SDS011;1666;48.898;9.182;2023-04-24T03:31:16;1.25;;;0.80;;
3307;SDS011;1666;48.898;9.182;2023-04-24T03:33:47;2.17;;;0.95;;
3307;SDS011;1666;48.898;9.182;2023-04-24T03:36:17;2.55;;;0.95;;
3307;SDS011;1666;48.898;9.182;2023-04-24T03:38:50;1.65;;;0.90;;
3307;SDS011;1666;48.898;9.182;2023-04-24T03:41:20;2.40;;;1.20;;
3307;SDS011;1666;48.898;9.182;2023-04-24T03:43:51;2.38;;;1.00;;
3307;SDS011;1666;48.898;9.182;2023-04-24T03:46:21;1.05;;;0.80;;
3307;SDS011;1666;48.898;9.182;2023-04-24T03:48:51;1.88;;;0.95;;
3307;SDS011;1666;48.898;9.182;2023-04-24T03:51:21;1.95;;;1.13;;
3307;SDS011;1666;48.898;9.182;2023-04-24T03:53:54;3.20;;;1.08;;
3307;SDS011;1666;48.898;9.182;2023-04-24T03:56:24;1.63;;;1.00;;
3307;SDS011;1666;48.898;9.182;2023-04-24T03:58:54;2.67;;;0.80;;
3307;SDS011;1666;48.898;9.182;2023-04-24T04:01:23;1.60;;;0.98;;
3307;SDS011;1666;48.898;9.182;2023-04-24T04:03:54;1.70;;;1.15;;
3307;SDS011;1666;48.898;9.182;2023-04-24T04:06:24;3.85;;;1.00;;
3307;SDS011;1666;48.898;9.182;2023-04-24T04:08:57;1.40;;;0.90;;
3307;SDS011;1666;48.898;9.182;2023-04-24T04:11:27;1.58;;;1.00;;
3307;SDS011;1666;48.898;9.182;2023-04-24T04:13:57;2.65;;;1.05;;
3307;SDS011;1666;48.898;9.182;2023-04-24T04:16:27;2.58;;;0.73;;
3307;SDS011;1666;48.898;9.182;2023-04-24T04:18:58;4.22;;;1.02;;
3307;SDS011;1666;48.898;9.182;2023-04-24T04:21:29;1.63;;;1.23;;
3307;SDS011;1666;48.898;9.182;2023-04-24T04:24:02;5.43;;;1.80;;
3307;SDS011;1666;48.898;9.182;2023-04-24T04:26:33;4.95;;;1.45;;
3307;SDS011;1666;48.898;9.182;2023-04-24T04:29:04;2.17;;;1.20;;
3307;SDS011;1666;48.898;9.182;2023-04-24T04:31:34;3.00;;;1.10;;
3307;SDS011;1666;48.898;9.182;2023-04-24T04:34:03;1.45;;;0.90;;
3307;SDS011;1666;48.898;9.182;2023-04-24T04:36:34;2.08;;;1.08;;
3307;SDS011;1666;48.898;9.182;2023-04-24T04:39:09;3.25;;;1.27;;
3307;SDS011;1666;48.898;9.182;2023-04-24T04:41:41;4.43;;;1.10;;
3307;SDS011;1666;48.898;9.182;2023-04-24T04:44:13;2.55;;;1.55;;
3307;SDS011;1666;48.898;9.182;2023-04-24T04:46:42;2.90;;;1.10;;
3307;SDS011;1666;48.898;9.182;2023-04-24T04:49:13;4.80;;;1.58;;
3307;SDS011;1666;48.898;9.182;2023-04-24T04:51:43;2.72;;;1.50;;
3307;SDS011;1666;48.898;9.182;2023-04-24T04:54:16;1.90;;;1.45;;
3307;SDS011;1666;48.898;9.182;2023-04-24T04:56:46;1.38;;;1.23;;
3307;SDS011;1666;48.898;9.182;2023-04-24T04:59:16;2.60;;;1.55;;
3307;SDS011;1666;48.898;9.182;2023-04-24T05:01:46;2.13;;;1.30;;
3307;SDS011;1666;48.898;9.182;2023-04-24T05:04:16;4.78;;;1.55;;
3307;SDS011;1666;48.898;9.182;2023-04-24T05:06:46;2.60;;;1.48;;
3307;SDS011;1666;48.898;9.182;2023-04-24T05:09:20;3.65;;;1.67;;
3307;SDS011;1666;48.898;9.182;2023-04-24T05:11:50;3.28;;;1.92;;
3307;SDS011;1666;48.898;9.182;2023-04-24T05:14:19;2.22;;;1.48;;
3307;SDS011;1666;48.898;9.182;2023-04-24T05:16:49;4.43;;;1.83;;
3307;SDS011;1666;48.898;9.182;2023-04-24T05:19:19;4.00;;;1.70;;
3307;SDS011;1666;48.898;9.182;2023-04-24T05:21:50;3.53;;;1.98;;
3307;SDS011;1666;48.898;9.182;2023-04-24T05:24:22;2.97;;;1.77;;
3307;SDS011;1666;48.898;9.182;2023-04-24T05:26:52;2.22;;;1.95;;
3307;SDS011;1666;48.898;9.182;2023-04-24T05:29:23;3.60;;;1.90;;
3307;SDS011;1666;48.898;9.182;2023-04-24T05:31:53;3.72;;;1.92;;
3307;SDS011;1666;48.898;9.182;2023-04-24T05:34:23;3.10;;;2.20;;
3307;SDS011;1666;48.898;9.182;2023-04-24T05:36:53;3.40;;;2.35;;
3307;SDS011;1666;48.898;9.182;2023-04-24T05:39:25;3.30;;;2.67;;
3307;SDS011;1666;48.898;9.182;2023-04-24T05:41:55;3.42;;;2.20;;
3307;SDS011;1666;48.898;9.182;2023-04-24T05:44:27;6.72;;;2.72;;
3307;SDS011;1666;48.898;9.182;2023-04-24T05:46:57;3.28;;;2.33;;
3307;SDS011;1666;48.898;9.182;2023-04-24T05:49:28;3.50;;;2.45;;
3307;SDS011;1666;48.898;9.182;2023-04-24T05:51:58;4.53;;;2.67;;
3307;SDS011;1666;48.898;9.182;2023-04-24T05:54:32;4.00;;;2.63;;
3307;SDS011;1666;48.898;9.182;2023-04-24T05:57:02;3.33;;;2.30;;
3307;SDS011;1666;48.898;9.182;2023-04-24T05:59:35;5.07;;;2.53;;
3307;SDS011;1666;48.898;9.182;2023-04-24T06:02:06;3.30;;;2.33;;
3307;SDS011;1666;48.898;9.182;2023-04-24T06:04:36;3.22;;;2.28;;
3307;SDS011;1666;48.898;9.182;2023-04-24T06:07:06;2.90;;;2.20;;
3307;SDS011;1666;48.898;9.182;2023-04-24T06:09:39;3.28;;;2.20;;
3307;SDS011;1666;48.898;9.182;2023-04-24T06:12:09;2.33;;;2.00;;
3307;SDS011;1666;48.898;9.182;2023-04-24T06:14:39;3.83;;;2.30;;
3307;SDS011;1666;48.898;9.182;2023-04-24T06:17:09;3.95;;;2.30;;
3307;SDS011;1666;48.898;9.182;2023-04-24T06:19:39;2.75;;;2.10;;
3307;SDS011;1666;48.898;9.182;2023-04-24T06:22:09;3.53;;;2.33;;
3307;SDS011;1666;48.898;9.182;2023-04-24T06:24:41;4.57;;;2.90;;
3307;SDS011;1666;48.898;9.182;2023-04-24T06:27:11;3.42;;;2.08;;
3307;SDS011;1666;48.898;9.182;2023-04-24T06:29:41;3.60;;;1.70;;
3307;SDS011;1666;48.898;9.182;2023-04-24T06:32:11;2.60;;;2.00;;
3307;SDS011;1666;48.898;9.182;2023-04-24T06:34:41;3.28;;;2.33;;
3307;SDS011;1666;48.898;9.182;2023-04-24T06:37:11;4.38;;;1.77;;
3307;SDS011;1666;48.898;9.182;2023-04-24T06:39:45;3.65;;;2.13;;
3307;SDS011;1666;48.898;9.182;2023-04-24T06:42:15;4.07;;;2.20;;
3307;SDS011;1666;48.898;9.182;2023-04-24T06:44:47;2.95;;;1.88;;
3307;SDS011;1666;48.898;9.182;2023-04-24T06:47:17;5.22;;;2.63;;
3307;SDS011;1666;48.898;9.182;2023-04-24T06:49:47;2.83;;;1.98;;
3307;SDS011;1666;48.898;9.182;2023-04-24T06:52:19;3.50;;;1.92;;
3307;SDS011;1666;48.898;9.182;2023-04-24T06:54:51;3.88;;;2.00;;
3307;SDS011;1666;48.898;9.182;2023-04-24T06:57:21;2.45;;;1.95;;
3307;SDS011;1666;48.898;9.182;2023-04-24T06:59:51;3.33;;;2.20;;
3307;SDS011;1666;48.898;9.182;2023-04-24T07:02:21;4.30;;;2.20;;
3307;SDS011;1666;48.898;9.182;2023-04-24T07:04:51;5.95;;;2.30;;
3307;SDS011;1666;48.898;9.182;2023-04-24T07:07:22;2.42;;;1.83;;
3307;SDS011;1666;48.898;9.182;2023-04-24T07:09:54;1.92;;;1.67;;
3307;SDS011;1666;48.898;9.182;2023-04-24T07:12:24;3.92;;;1.67;;
3307;SDS011;1666;48.898;9.182;2023-04-24T07:14:54;2.83;;;1.80;;
3307;SDS011;1666;48.898;9.182;2023-04-24T07:17:24;3.33;;;1.85;;
3307;SDS011;1666;48.898;9.182;2023-04-24T07:19:54;2.33;;;1.38;;
3307;SDS011;1666;48.898;9.182;2023-04-24T07:22:24;2.78;;;1.85;;
3307;SDS011;1666;48.898;9.182;2023-04-24T07:24:57;2.70;;;1.48;;
3307;SDS011;1666;48.898;9.182;2023-04-24T07:27:27;2.60;;;1.47;;
3307;SDS011;1666;48.898;9.182;2023-04-24T07:29:57;3.13;;;1.70;;
3307;SDS011;1666;48.898;9.182;2023-04-24T07:32:27;4.22;;;1.50;;
3307;SDS011;1666;48.898;9.182;2023-04-24T07:34:57;2.42;;;1.80;;
3307;SDS011;1666;48.898;9.182;2023-04-24T07:37:27;6.40;;;2.45;;
3307;SDS011;1666;48.898;9.182;2023-04-24T07:40:00;3.13;;;1.60;;
3307;SDS011;1666;48.898;9.182;2023-04-24T07:42:30;2.13;;;1.55;;
3307;SDS011;1666;48.898;9.182;2023-04-24T07:45:01;2.10;;;1.70;;
3307;SDS011;1666;48.898;9.182;2023-04-24T07:47:31;4.07;;;1.60;;
3307;SDS011;1666;48.898;9.182;2023-04-24T07:50:01;2.28;;;1.88;;
3307;SDS011;1666;48.898;9.182;2023-04-24T07:52:31;2.50;;;1.27;;
3307;SDS011;1666;48.898;9.182;2023-04-24T07:55:04;3.38;;;1.70;;
3307;SDS011;1666;48.898;9.182;2023-04-24T07:57:35;3.60;;;1.63;;
3307;SDS011;1666;48.898;9.182;2023-04-24T08:00:06;5.30;;;1.60;;
3307;SDS011;1666;48.898;9.182;2023-04-24T08:02:37;6.35;;;1.80;;
3307;SDS011;1666;48.898;9.182;2023-04-24T08:05:08;3.15;;;1.80;;
3307;SDS011;1666;48.898;9.182;2023-04-24T08:07:38;2.25;;;1.52;;
3307;SDS011;1666;48.898;9.182;2023-04-24T08:10:12;2.20;;;1.90;;
3307;SDS011;1666;48.898;9.182;2023-04-24T08:12:41;4.13;;;1.70;;
3307;SDS011;1666;48.898;9.182;2023-04-24T08:15:11;3.20;;;1.80;;
3307;SDS011;1666;48.898;9.182;2023-04-24T08:17:41;4.55;;;1.67;;
3307;SDS011;1666;48.898;9.182;2023-04-24T08:20:11;4.82;;;1.80;;
3307;SDS011;1666;48.898;9.182;2023-04-24T08:22:42;2.92;;;1.95;;
3307;SDS011;1666;48.898;9.182;2023-04-24T08:25:16;4.65;;;1.55;;
3307;SDS011;1666;48.898;9.182;2023-04-24T08:27:47;3.58;;;1.40;;
3307;SDS011;1666;48.898;9.182;2023-04-24T08:30:17;3.28;;;1.70;;
3307;SDS011;1666;48.898;9.182;2023-04-24T08:32:47;2.55;;;1.42;;
3307;SDS011;1666;48.898;9.182;2023-04-24T08:35:17;2.45;;;1.33;;
3307;SDS011;1666;48.898;9.182;2023-04-24T08:37:47;3.05;;;1.30;;
3307;SDS011;1666;48.898;9.182;2023-04-24T08:40:21;2.38;;;1.50;;
3307;SDS011;1666;48.898;9.182;2023-04-24T08:42:55;3.15;;;1.30;;
3307;SDS011;1666;48.898;9.182;2023-04-24T08:45:26;1.80;;;1.20;;
3307;SDS011;1666;48.898;9.182;2023-04-24T08:47:57;2.13;;;1.20;;
3307;SDS011;1666;48.898;9.182;2023-04-24T08:50:27;2.30;;;1.33;;
3307;SDS011;1666;48.898;9.182;2023-04-24T08:52:59;2.10;;;1.30;;
3307;SDS011;1666;48.898;9.182;2023-04-24T08:55:33;2.40;;;1.25;;
3307;SDS011;1666;48.898;9.182;2023-04-24T08:58:03;5.32;;;1.50;;
3307;SDS011;1666;48.898;9.182;2023-04-24T09:00:33;1.77;;;1.05;;
3307;SDS011;1666;48.898;9.182;2023-04-24T09:03:04;1.20;;;1.00;;
3307;SDS011;1666;48.898;9.182;2023-04-24T09:05:35;1.73;;;1.23;;
3307;SDS011;1666;48.898;9.182;2023-04-24T09:08:07;1.70;;;1.20;;
3307;SDS011;1666;48.898;9.182;2023-04-24T09:10:42;1.08;;;0.80;;
3307;SDS011;1666;48.898;9.182;2023-04-24T09:13:15;1.27;;;1.17;;
3307;SDS011;1666;48.898;9.182;2023-04-24T09:15:46;1.50;;;1.10;;
3307;SDS011;1666;48.898;9.182;2023-04-24T09:18:16;1.25;;;1.05;;
3307;SDS011;1666;48.898;9.182;2023-04-24T09:20:59;1.33;;;1.10;;
3307;SDS011;1666;48.898;9.182;2023-04-24T09:23:33;2.60;;;1.20;;
3307;SDS011;1666;48.898;9.182;2023-04-24T09:26:06;2.92;;;1.10;;
3307;SDS011;1666;48.898;9.182;2023-04-24T09:28:40;1.73;;;0.90;;
3307;SDS011;1666;48.898;9.182;2023-04-24T09:31:12;2.30;;;0.77;;
3307;SDS011;1666;48.898;9.182;2023-04-24T09:33:53;1.15;;;0.60;;
3307;SDS011;1666;48.898;9.182;2023-04-24T09:36:27;5.93;;;0.90;;
3307;SDS011;1666;48.898;9.182;2023-04-24T09:38:59;1.02;;;0.88;;
3307;SDS011;1666;48.898;9.182;2023-04-24T09:41:34;6.57;;;0.98;;
3307;SDS011;1666;48.898;9.182;2023-04-24T09:44:10;1.20;;;0.80;;
3307;SDS011;1666;48.898;9.182;2023-04-24T09:46:41;1.40;;;1.00;;
3307;SDS011;1666;48.898;9.182;2023-04-24T09:49:13;2.85;;;0.90;;
3307;SDS011;1666;48.898;9.182;2023-04-24T09:51:44;2.47;;;0.95;;
3307;SDS011;1666;48.898;9.182;2023-04-24T09:54:14;2.47;;;1.23;;
3307;SDS011;1666;48.898;9.182;2023-04-24T09:56:49;1.95;;;1.05;;
3307;SDS011;1666;48.898;9.182;2023-04-24T09:59:19;3.63;;;1.17;;
3307;SDS011;1666;48.898;9.182;2023-04-24T10:01:49;3.03;;;0.90;;
3307;SDS011;1666;48.898;9.182;2023-04-24T10:04:21;4.18;;;1.70;;
3307;SDS011;1666;48.898;9.182;2023-04-24T10:06:53;4.25;;;2.10;;
3307;SDS011;1666;48.898;9.182;2023-04-24T10:09:24;4.35;;;1.83;;
3307;SDS011;1666;48.898;9.182;2023-04-24T10:11:58;2.95;;;1.30;;
3307;SDS011;1666;48.898;9.182;2023-04-24T10:14:29;1.45;;;1.20;;
3307;SDS011;1666;48.898;9.182;2023-04-24T10:17:00;3.10;;;1.50;;
3307;SDS011;1666;48.898;9.182;2023-04-24T10:19:30;3.63;;;1.40;;
3307;SDS011;1666;48.898;9.182;2023-04-24T10:22:02;1.88;;;1.30;;
3307;SDS011;1666;48.898;9.182;2023-04-24T10:24:34;2.00;;;1.10;;
3307;SDS011;1666;48.898;9.182;2023-04-24T10:27:07;3.28;;;1.27;;
3307;SDS011;1666;48.898;9.182;2023-04-24T10:29:38;2.13;;;1.23;;
3307;SDS011;1666;48.898;9.182;2023-04-24T10:32:10;1.40;;;1.10;;
3307;SDS011;1666;48.898;9.182;2023-04-24T10:34:40;1.38;;;1.00;;
3307;SDS011;1666;48.898;9.182;2023-04-24T10:37:10;3.15;;;1.27;;
3307;SDS011;1666;48.898;9.182;2023-04-24T10:39:40;4.07;;;1.40;;
3307;SDS011;1666;48.898;9.182;2023-04-24T10:42:19;3.22;;;1.35;;
3307;SDS011;1666;48.898;9.182;2023-04-24T10:44:49;1.90;;;1.27;;
3307;SDS011;1666;48.898;9.182;2023-04-24T10:47:21;2.40;;;1.25;;
3307;SDS011;1666;48.898;9.182;2023-04-24T10:49:51;6.63;;;1.40;;
3307;SDS011;1666;48.898;9.182;2023-04-24T10:52:21;3.03;;;1.50;;
3307;SDS011;1666;48.898;9.182;2023-04-24T10:54:51;2.50;;;1.40;;
3307;SDS011;1666;48.898;9.182;2023-04-24T10:57:30;2.45;;;1.48;;
3307;SDS011;1666;48.898;9.182;2023-04-24T11:00:19;1.92;;;1.30;;
3307;SDS011;1666;48.898;9.182;2023-04-24T11:02:49;2.33;;;1.55;;
3307;SDS011;1666;48.898;9.182;2023-04-24T11:05:49;2.00;;;1.30;;
3307;SDS011;1666;48.898;9.182;2023-04-24T11:08:24;2.08;;;1.27;;
3307;SDS011;1666;48.898;9.182;2023-04-24T11:10:56;2.65;;;1.50;;
3307;SDS011;1666;48.898;9.182;2023-04-24T11:16:42;3.25;;;1.17;;
3307;SDS011;1666;48.898;9.182;2023-04-24T11:19:23;2.03;;;1.20;;
3307;SDS011;1666;48.898;9.182;2023-04-24T11:21:57;2.75;;;1.00;;
3307;SDS011;1666;48.898;9.182;2023-04-24T11:24:32;3.50;;;1.10;;
3307;SDS011;1666;48.898;9.182;2023-04-24T11:27:06;2.38;;;1.40;;
3307;SDS011;1666;48.898;9.182;2023-04-24T11:29:47;1.73;;;1.20;;
3307;SDS011;1666;48.898;9.182;2023-04-24T11:32:18;3.60;;;1.80;;
3307;SDS011;1666;48.898;9.182;2023-04-24T11:34:53;4.00;;;2.17;;
3307;SDS011;1666;48.898;9.182;2023-04-24T11:37:24;2.13;;;1.48;;
3307;SDS011;1666;48.898;9.182;2023-04-24T11:39:57;1.88;;;1.25;;
3307;SDS011;1666;48.898;9.182;2023-04-24T11:42:28;2.67;;;1.45;;
3307;SDS011;1666;48.898;9.182;2023-04-24T11:45:07;3.40;;;1.70;;
3307;SDS011;1666;48.898;9.182;2023-04-24T11:47:39;1.95;;;1.50;;
3307;SDS011;1666;48.898;9.182;2023-04-24T11:50:10;3.00;;;1.42;;
3307;SDS011;1666;48.898;9.182;2023-04-24T11:52:41;4.53;;;1.48;;
3307;SDS011;1666;48.898;9.182;2023-04-24T11:55:22;2.30;;;1.30;;
3307;SDS011;1666;48.898;9.182;2023-04-24T11:57:55;1.77;;;1.20;;
3307;SDS011;1666;48.898;9.182;2023-04-24T12:00:30;2.25;;;1.20;;
3307;SDS011;1666;48.898;9.182;2023-04-24T12:03:05;2.42;;;1.15;;
3307;SDS011;1666;48.898;9.182;2023-04-24T12:05:37;4.00;;;1.10;;
3307;SDS011;1666;48.898;9.182;2023-04-24T12:08:07;2.60;;;1.38;;
3307;SDS011;1666;48.898;9.182;2023-04-24T12:10:37;3.83;;;1.58;;
3307;SDS011;1666;48.898;9.182;2023-04-24T12:13:08;2.40;;;1.60;;
3307;SDS011;1666;48.898;9.182;2023-04-24T12:15:42;3.15;;;1.73;;
3307;SDS011;1666;48.898;9.182;2023-04-24T12:18:12;4.95;;;1.85;;
3307;SDS011;1666;48.898;9.182;2023-04-24T12:20:43;2.25;;;1.70;;
3307;SDS011;1666;48.898;9.182;2023-04-24T12:23:13;2.10;;;1.77;;
3307;SDS011;1666;48.898;9.182;2023-04-24T12:25:44;6.60;;;1.88;;
3307;SDS011;1666;48.898;9.182;2023-04-24T12:28:14;2.47;;;1.80;;
3307;SDS011;1666;48.898;9.182;2023-04-24T12:30:47;2.30;;;1.73;;
3307;SDS011;1666;48.898;9.182;2023-04-24T12:33:18;2.00;;;1.45;;
3307;SDS011;1666;48.898;9.182;2023-04-24T12:35:48;2.95;;;1.50;;
3307;SDS011;1666;48.898;9.182;2023-04-24T12:38:21;2.78;;;1.52;;
3307;SDS011;1666;48.898;9.182;2023-04-24T12:41:01;2.22;;;1.23;;
3307;SDS011;1666;48.898;9.182;2023-04-24T12:43:32;2.03;;;1.60;;
3307;SDS011;1666;48.898;9.182;2023-04-24T12:46:05;1.38;;;1.23;;
3307;SDS011;1666;48.898;9.182;2023-04-24T12:48:35;1.92;;;1.27;;
3307;SDS011;1666;48.898;9.182;2023-04-24T12:51:05;3.72;;;1.40;;
3307;SDS011;1666;48.898;9.182;2023-04-24T12:53:35;2.78;;;1.52;;
3307;SDS011;1666;48.898;9.182;2023-04-24T12:56:06;3.15;;;1.55;;
3307;SDS011;1666;48.898;9.182;2023-04-24T12:58:36;2.97;;;1.42;;
3307;SDS011;1666;48.898;9.182;2023-04-24T13:01:08;2.72;;;1.45;;
3307;SDS011;1666;48.898;9.182;2023-04-24T13:03:38;3.45;;;1.45;;
3307;SDS011;1666;48.898;9.182;2023-04-24T13:06:09;1.60;;;1.30;;
3307;SDS011;1666;48.898;9.182;2023-04-24T13:08:39;4.22;;;1.10;;
3307;SDS011;1666;48.898;9.182;2023-04-24T13:11:09;3.40;;;1.15;;
3307;SDS011;1666;48.898;9.182;2023-04-24T13:13:39;2.83;;;1.40;;
3307;SDS011;1666;48.898;9.182;2023-04-24T13:16:12;1.60;;;1.45;;
3307;SDS011;1666;48.898;9.182;2023-04-24T13:18:42;2.08;;;1.45;;
3307;SDS011;1666;48.898;9.182;2023-04-24T13:21:12;2.00;;;1.50;;
3307;SDS011;1666;48.898;9.182;2023-04-24T13:23:42;2.22;;;1.67;;
3307;SDS011;1666;48.898;9.182;2023-04-24T13:26:12;3.17;;;1.88;;
3307;SDS011;1666;48.898;9.182;2023-04-24T13:28:42;4.80;;;1.88;;
3307;SDS011;1666;48.898;9.182;2023-04-24T13:31:14;6.10;;;1.77;;
3307;SDS011;1666;48.898;9.182;2023-04-24T13:33:44;5.07;;;2.17;;
3307;SDS011;1666;48.898;9.182;2023-04-24T13:36:14;2.28;;;1.90;;
3307;SDS011;1666;48.898;9.182;2023-04-24T13:38:44;4.38;;;2.30;;
3307;SDS011;1666;48.898;9.182;2023-04-24T13:41:14;2.95;;;2.20;;
3307;SDS011;1666;48.898;9.182;2023-04-24T13:43:44;2.83;;;2.15;;
3307;SDS011;1666;48.898;9.182;2023-04-24T13:46:16;4.90;;;2.33;;
3307;SDS011;1666;48.898;9.182;2023-04-24T13:48:46;2.95;;;2.10;;
3307;SDS011;1666;48.898;9.182;2023-04-24T13:51:16;6.38;;;2.33;;
3307;SDS011;1666;48.898;9.182;2023-04-24T13:53:46;5.85;;;1.95;;
3307;SDS011;1666;48.898;9.182;2023-04-24T13:56:16;5.53;;;2.20;;
3307;SDS011;1666;48.898;9.182;2023-04-24T13:58:46;2.35;;;1.92;;
3307;SDS011;1666;48.898;9.182;2023-04-24T14:01:21;2.30;;;1.70;;
3307;SDS011;1666;48.898;9.182;2023-04-24T14:03:51;2.28;;;1.80;;
3307;SDS011;1666;48.898;9.182;2023-04-24T14:06:22;3.78;;;2.20;;
3307;SDS011;1666;48.898;9.182;2023-04-24T14:08:52;3.63;;;1.80;;
3307;SDS011;1666;48.898;9.182;2023-04-24T14:11:22;3.60;;;1.70;;
3307;SDS011;1666;48.898;9.182;2023-04-24T14:13:52;3.10;;;2.08;;
3307;SDS011;1666;48.898;9.182;2023-04-24T14:16:26;3.92;;;1.80;;
3307;SDS011;1666;48.898;9.182;2023-04-24T14:18:57;2.58;;;1.70;;
3307;SDS011;1666;48.898;9.182;2023-04-24T14:21:27;1.90;;;1.70;;
3307;SDS011;1666;48.898;9.182;2023-04-24T14:23:57;2.70;;;1.92;;
3307;SDS011;1666;48.898;9.182;2023-04-24T14:26:27;1.55;;;1.45;;
3307;SDS011;1666;48.898;9.182;2023-04-24T14:28:57;3.03;;;2.38;;
3307;SDS011;1666;48.898;9.182;2023-04-24T14:31:33;1.77;;;1.57;;
3307;SDS011;1666;48.898;9.182;2023-04-24T14:34:03;2.50;;;1.70;;
3307;SDS011;1666;48.898;9.182;2023-04-24T14:36:33;2.88;;;1.60;;
3307;SDS011;1666;48.898;9.182;2023-04-24T14:39:03;3.55;;;1.70;;
3307;SDS011;1666;48.898;9.182;2023-04-24T14:41:34;2.38;;;1.80;;
3307;SDS011;1666;48.898;9.182;2023-04-24T14:44:05;2.80;;;1.60;;
3307;SDS011;1666;48.898;9.182;2023-04-24T14:46:39;3.25;;;2.78;;
3307;SDS011;1666;48.898;9.182;2023-04-24T14:49:10;4.18;;;2.25;;
3307;SDS011;1666;48.898;9.182;2023-04-24T14:51:40;2.78;;;1.80;;
3307;SDS011;1666;48.898;9.182;2023-04-24T14:54:18;2.95;;;1.90;;
3307;SDS011;1666;48.898;9.182;2023-04-24T14:56:49;3.17;;;1.77;;
3307;SDS011;1666;48.898;9.182;2023-04-24T14:59:19;3.63;;;2.50;;
3307;SDS011;1666;48.898;9.182;2023-04-24T15:01:52;2.85;;;1.45;;
3307;SDS011;1666;48.898;9.182;2023-04-24T15:04:43;2.15;;;1.50;;
3307;SDS011;1666;48.898;9.182;2023-04-24T15:07:13;2.42;;;1.40;;
3307;SDS011;1666;48.898;9.182;2023-04-24T15:09:43;4.13;;;1.60;;
3307;SDS011;1666;48.898;9.182;2023-04-24T15:12:13;1.77;;;1.42;;
3307;SDS011;1666;48.898;9.182;2023-04-24T15:14:43;2.47;;;1.50;;
3307;SDS011;1666;48.898;9.182;2023-04-24T15:17:16;5.30;;;2.03;;
3307;SDS011;1666;48.898;9.182;2023-04-24T15:19:46;3.85;;;1.75;;
3307;SDS011;1666;48.898;9.182;2023-04-24T15:22:15;4.53;;;1.70;;
3307;SDS011;1666;48.898;9.182;2023-04-24T15:24:45;2.40;;;1.42;;
3307;SDS011;1666;48.898;9.182;2023-04-24T15:27:15;1.90;;;1.70;;
3307;SDS011;1666;48.898;9.182;2023-04-24T15:29:45;2.83;;;1.90;;
3307;SDS011;1666;48.898;9.182;2023-04-24T15:32:18;2.85;;;1.60;;
3307;SDS011;1666;48.898;9.182;2023-04-24T15:34:48;6.38;;;1.90;;
3307;SDS011;1666;48.898;9.182;2023-04-24T15:37:33;3.67;;;1.63;;
3307;SDS011;1666;48.898;9.182;2023-04-24T15:40:04;2.75;;;1.27;;
3307;SDS011;1666;48.898;9.182;2023-04-24T15:42:34;2.17;;;1.33;;